Time;durP1;ratioP1;P1;durP2;ratioP2;P2;SDS_P1;SDS_P2;PMS_P1;PMS_P2;Temp;Humidity;BMP_temperature;BMP_pressure;BME280_temperature;BME280_humidity;BME280_pressure;Samples;Min_cycle;Max_cycle;Signal;HPM_P1;HPM_P2
2023/01/31 00:03:53;;;;;;;20.85;7.57;;;7.20;99.90;;;;;;5073829;28;20198;-78
2023/01/31 00:06:25;;;;;;;30.40;7.07;;;7.10;99.90;;;;;;5057083;28;20217;-80
2023/01/31 00:08:51;;;;;;;22.45;7.40;;;7.00;99.90;;;;;;5075339;28;20639;-78
2023/01/31 00:11:18;;;;;;;23.33;7.25;;;6.90;99.90;;;;;;5075415;28;20248;-77
2023/01/31 00:13:44;;;;;;;21.60;6.85;;;6.80;99.90;;;;;;5075500;28;20517;-79
2023/01/31 00:16:11;;;;;;;30.48;7.93;;;6.80;99.90;;;;;;5075461;28;20166;-78
2023/01/31 00:18:37;;;;;;;24.15;7.35;;;6.70;99.90;;;;;;5075362;28;20162;-78
2023/01/31 00:21:12;;;;;;;34.05;7.03;;;6.80;99.90;;;;;;5075192;28;20193;-77
2023/01/31 00:23:39;;;;;;;20.02;6.95;;;6.70;99.90;;;;;;5075440;28;20203;-77
2023/01/31 00:26:18;;;;;;;22.08;7.22;;;6.50;99.90;;;;;;5074855;28;20198;-77
2023/01/31 00:28:45;;;;;;;20.20;7.00;;;6.40;99.90;;;;;;5075030;28;20186;-77
2023/01/31 00:31:13;;;;;;;25.25;6.88;;;6.60;99.90;;;;;;5057085;28;20186;-77
2023/01/31 00:33:40;;;;;;;19.33;6.60;;;6.70;99.90;;;;;;5075040;28;20171;-79
2023/01/31 00:36:08;;;;;;;34.70;7.32;;;6.80;99.90;;;;;;5075194;28;20162;-77
2023/01/31 00:38:34;;;;;;;25.30;6.60;;;6.70;99.90;;;;;;5075161;28;20169;-78
2023/01/31 00:41:01;;;;;;;26.60;7.60;;;6.50;99.90;;;;;;5074704;28;20602;-77
2023/01/31 00:43:26;;;;;;;28.98;7.15;;;6.30;99.90;;;;;;5074889;28;20181;-76
2023/01/31 00:45:52;;;;;;;37.70;6.78;;;6.40;99.90;;;;;;5074615;28;20198;-77
2023/01/31 00:48:18;;;;;;;33.03;8.07;;;6.30;99.90;;;;;;5074855;28;20173;-78
2023/01/31 00:50:44;;;;;;;16.48;6.68;;;6.20;99.90;;;;;;5074759;28;20681;-77
2023/01/31 00:53:09;;;;;;;21.75;7.10;;;6.10;99.90;;;;;;5074930;28;20205;-78
2023/01/31 00:55:39;;;;;;;22.70;7.05;;;6.10;99.90;;;;;;5074307;28;20619;-82
2023/01/31 00:58:05;;;;;;;18.50;5.97;;;6.20;99.90;;;;;;5074664;28;20173;-82
2023/01/31 01:00:31;;;;;;;20.92;6.22;;;6.00;99.90;;;;;;5074762;28;20273;-79
2023/01/31 01:02:56;;;;;;;22.27;7.28;;;6.20;99.90;;;;;;5074224;28;20327;-78
2023/01/31 01:05:22;;;;;;;26.08;6.75;;;6.20;99.90;;;;;;5073653;28;20206;-78
2023/01/31 01:07:47;;;;;;;25.02;7.82;;;6.10;99.90;;;;;;5073496;28;20174;-78
2023/01/31 01:10:13;;;;;;;34.40;6.47;;;5.90;99.90;;;;;;5074326;28;20187;-78
2023/01/31 01:12:39;;;;;;;28.38;7.47;;;6.00;99.90;;;;;;5074338;28;20178;-78
2023/01/31 01:15:05;;;;;;;29.80;7.18;;;5.90;99.90;;;;;;5074231;28;20162;-79
2023/01/31 01:17:31;;;;;;;23.38;6.35;;;5.90;99.90;;;;;;5074166;28;20158;-79
2023/01/31 01:19:56;;;;;;;23.08;5.80;;;6.00;99.90;;;;;;5074014;28;20261;-79
2023/01/31 01:22:22;;;;;;;22.33;6.68;;;5.90;99.90;;;;;;5074307;28;20621;-78
2023/01/31 01:24:47;;;;;;;41.05;6.90;;;5.80;99.90;;;;;;5056009;28;20253;-78
2023/01/31 01:27:16;;;;;;;26.65;6.65;;;5.90;99.90;;;;;;5074009;28;20206;-79
2023/01/31 01:29:42;;;;;;;22.58;6.88;;;6.00;99.90;;;;;;5073834;28;20178;-78
2023/01/31 01:32:07;;;;;;;37.40;7.00;;;5.90;99.90;;;;;;5056133;28;20174;-79
2023/01/31 01:34:34;;;;;;;25.48;6.50;;;5.90;99.90;;;;;;5073845;28;20167;-78
2023/01/31 01:37:00;;;;;;;17.20;5.55;;;5.80;99.90;;;;;;5055513;28;20661;-79
2023/01/31 01:39:28;;;;;;;19.58;6.22;;;5.60;99.90;;;;;;5073786;28;20237;-79
2023/01/31 01:41:55;;;;;;;25.90;6.65;;;5.70;99.90;;;;;;5073456;28;20189;-79
2023/01/31 01:44:51;;;;;;;28.35;7.32;;;5.70;99.90;;;;;;5055741;28;20180;-79
2023/01/31 01:47:39;;;;;;;31.65;7.43;;;5.70;99.90;;;;;;5073313;28;20251;-80
2023/01/31 01:50:15;;;;;;;36.83;7.32;;;5.70;99.90;;;;;;5073306;28;20185;-78
2023/01/31 01:52:45;;;;;;;17.05;6.10;;;5.90;99.90;;;;;;5073520;28;20189;-76
2023/01/31 01:55:30;;;;;;;27.90;7.10;;;6.00;99.90;;;;;;5073390;28;20163;-76
2023/01/31 01:58:02;;;;;;;28.75;5.63;;;6.10;99.90;;;;;;5073492;28;20166;-76
2023/01/31 02:00:30;;;;;;;30.63;6.90;;;6.10;99.90;;;;;;5073517;28;20193;-76
2023/01/31 02:02:58;;;;;;;14.70;6.25;;;6.20;99.90;;;;;;5073339;28;20189;-76
2023/01/31 02:05:32;;;;;;;31.13;7.47;;;6.10;99.90;;;;;;5073129;28;20169;-76
2023/01/31 02:07:59;;;;;;;23.58;6.80;;;5.90;99.90;;;;;;5073251;28;20181;-77
2023/01/31 02:10:37;;;;;;;19.13;6.03;;;6.00;99.90;;;;;;5055274;28;20186;-79
2023/01/31 02:13:03;;;;;;;24.83;7.40;;;5.80;99.90;;;;;;5073059;28;20170;-79
2023/01/31 02:15:30;;;;;;;44.53;6.95;;;5.70;99.90;;;;;;5072996;28;20242;-78
2023/01/31 02:17:56;;;;;;;31.70;7.38;;;5.80;99.90;;;;;;5053168;28;20225;-79
2023/01/31 02:20:37;;;;;;;28.17;7.57;;;5.90;99.90;;;;;;5052595;28;20194;-79
2023/01/31 02:23:11;;;;;;;20.75;8.07;;;5.70;99.90;;;;;;5052848;28;20505;-79
2023/01/31 02:26:07;;;;;;;21.85;6.78;;;5.70;99.90;;;;;;5053027;28;20186;-80
2023/01/31 02:28:56;;;;;;;22.00;6.63;;;5.40;99.90;;;;;;5053045;28;20224;-77
2023/01/31 02:31:44;;;;;;;25.42;7.22;;;5.50;99.90;;;;;;5051252;28;20325;-77
2023/01/31 02:34:23;;;;;;;25.70;7.63;;;5.80;99.90;;;;;;5052870;28;20530;-78
2023/01/31 02:36:57;;;;;;;32.30;7.90;;;5.90;99.90;;;;;;5052759;28;20190;-77
2023/01/31 02:39:44;;;;;;;23.95;7.50;;;5.70;99.90;;;;;;5052620;28;20174;-77
2023/01/31 02:42:27;;;;;;;20.73;7.68;;;5.80;99.90;;;;;;5052766;28;20171;-77
2023/01/31 02:45:17;;;;;;;21.45;7.85;;;5.50;99.90;;;;;;5052593;28;20163;-76
2023/01/31 02:47:49;;;;;;;15.98;7.45;;;5.30;99.90;;;;;;5052510;28;20211;-78
2023/01/31 02:50:37;;;;;;;30.63;8.20;;;5.10;99.90;;;;;;5052531;28;20284;-77
2023/01/31 02:53:11;;;;;;;25.52;7.93;;;5.00;99.90;;;;;;5052604;28;20170;-78
2023/01/31 02:56:16;;;;;;;29.80;7.97;;;5.10;99.90;;;;;;5052729;28;20163;-78
2023/01/31 02:58:56;;;;;;;22.83;7.32;;;5.20;99.90;;;;;;5052401;28;20250;-78
2023/01/31 03:01:27;;;;;;;24.42;8.65;;;5.20;99.90;;;;;;5050915;28;20244;-79
2023/01/31 03:03:58;;;;;;;25.02;7.88;;;5.30;99.90;;;;;;5052365;28;20179;-78
2023/01/31 03:06:23;;;;;;;18.70;7.18;;;5.20;99.90;;;;;;5052334;28;20195;-78
2023/01/31 03:09:27;;;;;;;28.63;8.88;;;5.10;99.90;;;;;;5051222;28;20761;-78
2023/01/31 03:12:23;;;;;;;32.35;8.52;;;5.00;99.90;;;;;;5052131;28;20716;-77
2023/01/31 03:17:30;;;;;;;21.27;7.47;;;5.00;99.90;;;;;;5052555;28;20190;-77
2023/01/31 03:18:25;;;;;;;30.45;8.00;;;5.00;99.90;;;;;;5052189;28;20197;-77
2023/01/31 03:21:18;;;;;;;31.48;7.07;;;5.00;99.90;;;;;;5051760;28;20753;-77
2023/01/31 03:23:50;;;;;;;18.35;7.00;;;5.00;99.90;;;;;;5052372;28;20195;-77
2023/01/31 03:26:19;;;;;;;29.10;8.27;;;4.90;99.90;;;;;;5052160;28;20293;-78
2023/01/31 03:28:47;;;;;;;32.25;7.15;;;4.80;99.90;;;;;;5051961;28;20205;-77
2023/01/31 03:31:34;;;;;;;14.13;7.18;;;4.80;99.90;;;;;;5054587;28;20600;-78
2023/01/31 03:34:05;;;;;;;22.60;9.27;;;4.90;99.90;;;;;;5055737;28;20178;-77
2023/01/31 03:36:45;;;;;;;23.17;7.97;;;4.80;99.90;;;;;;5056061;28;20268;-77
2023/01/31 03:39:26;;;;;;;22.83;7.05;;;4.90;99.90;;;;;;5056140;28;20668;-77
2023/01/31 03:42:08;;;;;;;22.10;6.78;;;4.80;99.90;;;;;;5055949;28;20195;-78
2023/01/31 03:45:01;;;;;;;39.30;8.38;;;4.40;99.90;;;;;;5055887;28;20250;-77
2023/01/31 03:47:30;;;;;;;24.70;7.28;;;4.40;99.90;;;;;;5056118;28;20218;-77
2023/01/31 03:50:00;;;;;;;19.33;7.80;;;4.40;99.90;;;;;;5055843;28;20207;-78
2023/01/31 03:52:34;;;;;;;20.55;7.25;;;4.70;99.90;;;;;;5055791;28;20166;-77
2023/01/31 03:55:29;;;;;;;24.67;8.32;;;4.70;99.90;;;;;;5055860;28;20170;-77
2023/01/31 03:57:57;;;;;;;25.13;7.70;;;4.60;99.90;;;;;;5055734;28;20167;-78
2023/01/31 04:00:25;;;;;;;25.00;6.88;;;4.60;99.90;;;;;;5055614;28;20194;-78
2023/01/31 04:02:57;;;;;;;22.73;7.75;;;4.40;99.90;;;;;;5054506;28;20179;-77
2023/01/31 04:05:29;;;;;;;22.80;7.13;;;4.30;99.90;;;;;;5055190;28;20171;-78
2023/01/31 04:07:55;;;;;;;19.67;6.85;;;4.40;99.90;;;;;;5055104;28;20183;-77
2023/01/31 04:10:22;;;;;;;23.42;6.55;;;4.50;99.90;;;;;;5055504;28;20598;-77
2023/01/31 04:12:47;;;;;;;33.03;6.95;;;4.40;99.90;;;;;;5055328;28;20225;-77
2023/01/31 04:15:14;;;;;;;23.10;7.68;;;4.50;99.90;;;;;;5054158;28;20164;-77
2023/01/31 04:17:39;;;;;;;23.35;7.85;;;4.60;99.90;;;;;;5055163;28;20167;-77
2023/01/31 04:20:06;;;;;;;28.83;7.22;;;4.50;99.90;;;;;;5055630;28;20194;-78
2023/01/31 04:22:32;;;;;;;17.48;7.57;;;4.50;99.90;;;;;;5055077;28;20628;-77
2023/01/31 04:24:57;;;;;;;17.77;7.18;;;4.60;99.90;;;;;;5055265;28;20231;-78
2023/01/31 04:27:23;;;;;;;16.15;6.75;;;4.70;99.90;;;;;;5055225;28;20207;-77
2023/01/31 04:29:49;;;;;;;19.10;6.60;;;4.80;99.90;;;;;;5054969;28;20178;-78
2023/01/31 04:32:14;;;;;;;19.20;6.40;;;4.90;99.90;;;;;;5055103;28;20163;-77
2023/01/31 04:34:40;;;;;;;19.33;7.47;;;4.80;99.90;;;;;;5054094;28;20171;-77
2023/01/31 04:37:05;;;;;;;20.13;6.30;;;4.70;99.90;;;;;;5053491;28;20631;-79
2023/01/31 04:39:31;;;;;;;25.27;6.45;;;4.70;99.90;;;;;;5055070;28;20189;-79
2023/01/31 04:41:57;;;;;;;35.15;8.25;;;4.70;99.90;;;;;;5053749;28;20248;-78
2023/01/31 04:44:22;;;;;;;23.55;8.23;;;4.60;99.90;;;;;;5054815;28;20167;-79
2023/01/31 04:46:48;;;;;;;23.95;6.45;;;4.70;99.90;;;;;;5054533;28;20203;-79
2023/01/31 04:49:14;;;;;;;20.13;7.88;;;4.40;99.90;;;;;;5054544;28;20577;-78
2023/01/31 04:51:40;;;;;;;23.92;7.85;;;4.40;99.90;;;;;;5053372;28;20242;-79
2023/01/31 04:54:06;;;;;;;17.33;6.93;;;4.40;99.90;;;;;;5054606;28;20163;-80
2023/01/31 04:56:32;;;;;;;18.67;5.65;;;4.50;99.90;;;;;;5054652;28;20171;-78
2023/01/31 04:58:58;;;;;;;18.17;6.43;;;4.60;99.90;;;;;;5054650;28;20627;-78
2023/01/31 05:01:24;;;;;;;14.52;6.15;;;4.70;99.90;;;;;;5054182;28;20195;-81
2023/01/31 05:03:50;;;;;;;24.70;6.55;;;4.70;99.90;;;;;;5053961;28;20179;-78
2023/01/31 05:06:16;;;;;;;18.90;6.03;;;4.80;99.90;;;;;;5054471;28;20226;-80
2023/01/31 05:08:41;;;;;;;25.02;6.35;;;4.60;99.90;;;;;;5054576;28;20635;-79
2023/01/31 05:11:07;;;;;;;21.75;6.05;;;4.60;99.90;;;;;;5054126;28;20233;-78
2023/01/31 05:13:37;;;;;;;21.42;6.97;;;4.60;99.90;;;;;;5054288;28;20642;-78
2023/01/31 05:16:11;;;;;;;26.80;6.00;;;4.50;99.90;;;;;;5053900;28;20163;-78
2023/01/31 05:18:38;;;;;;;18.13;5.50;;;4.50;99.90;;;;;;5054138;28;20163;-78
2023/01/31 05:21:05;;;;;;;17.27;5.90;;;4.50;99.90;;;;;;5053606;28;20183;-80
2023/01/31 05:23:31;;;;;;;25.98;6.03;;;4.50;99.90;;;;;;5054076;28;20167;-78
2023/01/31 05:25:56;;;;;;;36.65;6.70;;;4.40;99.90;;;;;;5053805;28;20281;-80
2023/01/31 05:28:24;;;;;;;18.48;6.32;;;4.40;99.90;;;;;;5053613;28;20179;-80
2023/01/31 05:30:49;;;;;;;19.23;5.97;;;4.50;99.90;;;;;;5053759;28;20195;-79
2023/01/31 05:33:15;;;;;;;17.15;5.55;;;4.60;99.90;;;;;;5053658;28;20170;-79
2023/01/31 05:35:41;;;;;;;20.15;6.57;;;4.70;99.90;;;;;;5053549;28;20937;-79
2023/01/31 05:38:08;;;;;;;13.32;5.28;;;4.80;99.90;;;;;;5054074;28;20546;-79
2023/01/31 05:40:34;;;;;;;23.42;6.22;;;4.90;99.90;;;;;;5053647;28;20195;-78
2023/01/31 05:43:00;;;;;;;12.38;5.28;;;4.90;99.90;;;;;;5053606;28;20174;-78
2023/01/31 05:45:26;;;;;;;28.55;6.15;;;4.90;99.90;;;;;;5053701;28;20611;-78
2023/01/31 05:47:53;;;;;;;23.58;5.47;;;4.70;99.90;;;;;;5053173;28;20183;-79
2023/01/31 05:50:18;;;;;;;16.83;5.28;;;4.50;99.90;;;;;;5053430;28;20266;-79
2023/01/31 05:52:56;;;;;;;20.35;5.22;;;4.50;99.90;;;;;;5053180;28;20267;-78
2023/01/31 05:55:22;;;;;;;23.55;5.63;;;4.50;99.90;;;;;;5053768;28;20191;-81
2023/01/31 05:57:47;;;;;;;16.85;4.63;;;4.60;99.90;;;;;;5051999;28;20565;-79
2023/01/31 06:00:14;;;;;;;11.65;5.45;;;4.60;99.90;;;;;;5053403;28;20195;-78
2023/01/31 06:02:40;;;;;;;17.27;5.57;;;4.60;99.90;;;;;;5053993;28;20179;-79
2023/01/31 06:05:07;;;;;;;18.38;5.28;;;4.60;99.90;;;;;;5053141;28;20171;-79
2023/01/31 06:07:33;;;;;;;23.83;5.70;;;4.70;99.90;;;;;;5053115;28;20203;-81
2023/01/31 06:09:59;;;;;;;22.58;6.00;;;4.70;99.90;;;;;;5052980;28;20232;-79
2023/01/31 06:12:24;;;;;;;22.48;5.35;;;4.80;99.90;;;;;;5051745;28;20224;-79
2023/01/31 06:14:50;;;;;;;21.73;5.80;;;4.90;99.90;;;;;;5052985;28;20167;-79
2023/01/31 06:17:16;;;;;;;9.27;5.00;;;5.10;99.90;;;;;;5052759;28;20573;-80
2023/01/31 06:19:41;;;;;;;31.00;6.43;;;5.10;99.90;;;;;;5052736;28;20178;-78
2023/01/31 06:22:08;;;;;;;21.70;5.05;;;5.10;99.90;;;;;;5052709;28;20199;-78
2023/01/31 06:24:34;;;;;;;24.85;5.45;;;5.10;99.90;;;;;;5052768;28;20213;-78
2023/01/31 06:26:59;;;;;;;14.43;5.82;;;5.10;99.90;;;;;;5052869;28;20203;-78
2023/01/31 06:29:25;;;;;;;9.88;5.15;;;5.10;99.90;;;;;;5052939;28;20163;-78
2023/01/31 06:31:52;;;;;;;23.10;5.28;;;5.20;99.90;;;;;;5052732;28;20656;-78
2023/01/31 06:34:18;;;;;;;19.50;5.90;;;5.20;99.90;;;;;;5053024;28;20174;-79
2023/01/31 06:36:44;;;;;;;15.75;4.57;;;5.20;99.90;;;;;;5052140;28;20202;-80
2023/01/31 06:39:11;;;;;;;15.10;5.15;;;5.30;99.90;;;;;;5052785;28;20605;-79
2023/01/31 06:41:37;;;;;;;14.50;4.95;;;5.00;99.90;;;;;;5052160;28;20244;-78
2023/01/31 06:44:02;;;;;;;32.30;5.68;;;5.00;99.90;;;;;;5051160;28;20167;-79
2023/01/31 06:46:28;;;;;;;18.80;5.40;;;5.00;99.90;;;;;;5051923;28;20605;-79
2023/01/31 06:48:53;;;;;;;14.43;4.55;;;5.10;99.90;;;;;;5051968;28;20178;-79
2023/01/31 06:51:19;;;;;;;16.40;5.43;;;5.20;99.90;;;;;;5051673;28;20690;-79
2023/01/31 06:53:45;;;;;;;14.93;5.47;;;5.20;99.90;;;;;;5050243;28;20467;-78
2023/01/31 06:56:10;;;;;;;14.45;4.55;;;5.10;99.90;;;;;;5052120;28;20159;-78
2023/01/31 06:58:36;;;;;;;15.00;4.45;;;5.20;99.90;;;;;;5052311;28;20194;-78
2023/01/31 07:01:06;;;;;;;14.70;5.03;;;5.30;99.90;;;;;;5052421;28;20270;-79
2023/01/31 07:03:32;;;;;;;21.40;5.32;;;5.40;99.90;;;;;;5050671;28;20183;-79
2023/01/31 07:05:57;;;;;;;18.23;5.10;;;5.40;99.90;;;;;;5051381;28;20663;-79
2023/01/31 07:08:23;;;;;;;15.50;5.55;;;5.30;99.90;;;;;;5051971;28;20171;-79
2023/01/31 07:10:49;;;;;;;13.63;4.43;;;5.30;99.90;;;;;;5051566;28;20211;-78
2023/01/31 07:13:14;;;;;;;10.93;4.47;;;5.40;99.90;;;;;;5050510;28;20257;-78
2023/01/31 07:15:41;;;;;;;18.83;4.70;;;5.40;99.90;;;;;;5051671;28;20187;-77
2023/01/31 07:18:06;;;;;;;33.67;6.15;;;5.50;99.90;;;;;;5051994;28;20198;-79
2023/01/31 07:20:32;;;;;;;25.52;5.45;;;5.50;99.90;;;;;;5051811;28;20264;-78
2023/01/31 07:22:58;;;;;;;22.33;4.93;;;5.50;99.90;;;;;;5050572;28;20171;-79
2023/01/31 07:25:25;;;;;;;16.17;6.28;;;5.70;99.90;;;;;;5051801;28;20159;-79
2023/01/31 07:27:51;;;;;;;20.23;6.22;;;5.70;99.90;;;;;;5051167;28;20261;-78
2023/01/31 07:30:17;;;;;;;20.92;5.20;;;5.80;99.90;;;;;;5050812;28;20195;-78
2023/01/31 07:32:42;;;;;;;10.45;4.35;;;5.60;99.90;;;;;;5051393;28;20609;-80
2023/01/31 07:35:08;;;;;;;15.80;4.75;;;5.70;99.90;;;;;;5051576;28;20163;-78
2023/01/31 07:37:34;;;;;;;14.63;4.35;;;5.80;99.90;;;;;;5051530;28;20164;-79
2023/01/31 07:40:00;;;;;;;19.50;4.40;;;5.80;99.90;;;;;;5051668;28;20227;-80
2023/01/31 07:42:27;;;;;;;18.67;5.53;;;5.80;99.90;;;;;;5051815;28;20167;-78
2023/01/31 07:44:52;;;;;;;14.80;4.75;;;5.80;99.90;;;;;;5050258;28;20237;-78
2023/01/31 07:47:18;;;;;;;21.73;4.78;;;5.80;99.90;;;;;;5051225;28;20211;-78
2023/01/31 07:49:44;;;;;;;21.25;4.93;;;5.80;99.90;;;;;;5051384;28;20172;-79
2023/01/31 07:52:09;;;;;;;17.15;4.32;;;5.80;99.90;;;;;;5050982;28;20167;-79
2023/01/31 07:54:35;;;;;;;24.20;4.40;;;5.90;99.90;;;;;;5051411;28;20155;-78
2023/01/31 07:57:00;;;;;;;20.85;4.88;;;6.00;99.90;;;;;;5051512;28;20512;-81
2023/01/31 07:59:26;;;;;;;24.00;6.05;;;6.00;99.90;;;;;;5051530;28;20159;-79
2023/01/31 08:04:35;;;;;;;17.30;4.47;;;6.10;99.90;;;;;;5066452;28;20181;-78
2023/01/31 08:07:04;;;;;;;12.88;4.00;;;6.10;99.90;;;;;;5050218;28;20206;-77
2023/01/31 08:09:30;;;;;;;17.60;5.82;;;6.20;99.90;;;;;;5053334;28;20178;-77
2023/01/31 08:11:56;;;;;;;19.88;4.78;;;6.20;99.90;;;;;;5072260;28;20206;-84
2023/01/31 08:14:26;;;;;;;17.02;4.15;;;6.10;99.90;;;;;;5059074;28;20229;-82
2023/01/31 08:16:53;;;;;;;17.30;4.85;;;6.30;99.90;;;;;;5073882;28;20173;-78
2023/01/31 08:19:25;;;;;;;18.35;4.93;;;6.30;99.90;;;;;;5058818;28;20163;-82
2023/01/31 08:21:51;;;;;;;19.67;4.55;;;6.40;99.90;;;;;;5055139;28;20249;-84
2023/01/31 08:24:17;;;;;;;28.10;5.20;;;6.60;99.90;;;;;;5090563;28;20178;-83
2023/01/31 08:26:42;;;;;;;17.63;4.63;;;6.60;99.90;;;;;;5095685;28;20213;-78
2023/01/31 08:29:09;;;;;;;39.30;4.57;;;6.50;99.90;;;;;;5096140;28;20166;-83
2023/01/31 08:31:34;;;;;;;13.82;4.18;;;6.60;99.90;;;;;;5096516;28;20200;-78
2023/01/31 08:34:02;;;;;;;19.35;3.67;;;6.60;99.90;;;;;;5066258;28;20174;-84
2023/01/31 08:36:30;;;;;;;12.85;3.58;;;6.50;99.90;;;;;;5058899;28;20182;-82
2023/01/31 08:38:56;;;;;;;25.77;5.10;;;6.50;99.90;;;;;;5090317;28;20261;-76
2023/01/31 08:41:24;;;;;;;16.52;4.50;;;6.60;99.90;;;;;;5078466;28;20269;-82
2023/01/31 08:43:50;;;;;;;26.17;4.55;;;6.70;99.90;;;;;;5088516;28;20218;-80
2023/01/31 08:46:19;;;;;;;17.50;4.10;;;6.80;99.90;;;;;;5095966;28;20198;-80
2023/01/31 08:48:44;;;;;;;14.13;4.63;;;6.80;99.90;;;;;;5071793;28;20194;-80
2023/01/31 08:51:12;;;;;;;17.52;4.28;;;6.90;99.90;;;;;;5052548;28;20659;-79
2023/01/31 08:53:39;;;;;;;20.48;4.43;;;7.10;99.90;;;;;;5054611;28;20179;-79
2023/01/31 08:56:06;;;;;;;14.85;4.15;;;7.10;99.90;;;;;;5054853;28;20171;-80
2023/01/31 08:58:33;;;;;;;14.95;4.28;;;7.10;99.90;;;;;;5053732;28;20170;-81
2023/01/31 09:01:10;;;;;;;21.65;3.72;;;7.00;99.90;;;;;;5056823;28;20277;-83
2023/01/31 09:03:36;;;;;;;15.50;3.78;;;7.00;99.90;;;;;;5052013;28;20194;-80
2023/01/31 09:06:05;;;;;;;17.25;4.20;;;7.00;99.90;;;;;;5067737;28;20214;-79
2023/01/31 09:08:31;;;;;;;21.98;4.28;;;7.10;99.90;;;;;;5073974;28;20174;-80
2023/01/31 09:10:59;;;;;;;31.90;4.22;;;7.20;99.90;;;;;;5080485;28;20192;-80
2023/01/31 09:13:26;;;;;;;18.83;4.15;;;7.30;99.90;;;;;;5093604;28;20162;-80
2023/01/31 09:15:59;;;;;;;20.20;4.05;;;7.30;99.90;;;;;;5094089;28;20162;-80
2023/01/31 09:18:25;;;;;;;12.10;3.67;;;7.30;99.90;;;;;;5093478;28;20253;-80
2023/01/31 09:20:51;;;;;;;20.92;4.25;;;7.40;99.90;;;;;;5093626;28;20276;-81
2023/01/31 09:23:18;;;;;;;10.75;3.75;;;7.40;99.90;;;;;;5094072;28;20558;-83
2023/01/31 09:25:50;;;;;;;16.13;3.80;;;7.40;99.90;;;;;;5094136;28;20215;-79
2023/01/31 09:28:16;;;;;;;31.38;4.70;;;7.40;99.90;;;;;;5093211;28;20174;-81
2023/01/31 09:30:41;;;;;;;21.48;4.82;;;7.40;99.90;;;;;;5075683;28;20200;-81
2023/01/31 09:33:07;;;;;;;15.95;4.03;;;7.30;99.90;;;;;;5094055;28;20173;-79
2023/01/31 09:35:32;;;;;;;15.88;4.28;;;7.40;99.90;;;;;;5094410;28;20529;-78
2023/01/31 09:37:58;;;;;;;12.63;4.43;;;7.50;99.90;;;;;;5094074;28;20233;-80
2023/01/31 09:40:27;;;;;;;17.48;4.18;;;7.50;99.90;;;;;;5066781;28;20862;-83
2023/01/31 09:42:53;;;;;;;13.30;4.10;;;7.70;99.90;;;;;;5055287;28;20186;-82
2023/01/31 09:45:31;;;;;;;18.52;3.88;;;7.70;99.90;;;;;;5073559;28;20163;-81
2023/01/31 09:48:00;;;;;;;16.60;4.10;;;7.60;99.90;;;;;;5073203;28;20213;-82
2023/01/31 09:50:29;;;;;;;12.52;4.07;;;7.50;99.90;;;;;;5075553;28;20197;-83
2023/01/31 09:52:56;;;;;;;16.75;4.05;;;7.70;99.90;;;;;;5075234;28;20537;-82
2023/01/31 09:55:36;;;;;;;22.15;3.75;;;7.80;99.90;;;;;;5075438;28;20169;-83
2023/01/31 09:58:26;;;;;;;18.33;4.05;;;7.80;99.90;;;;;;5093095;28;20173;-82
2023/01/31 10:01:13;;;;;;;20.92;4.00;;;7.90;99.90;;;;;;5085229;28;20519;-80
2023/01/31 10:03:51;;;;;;;16.40;4.47;;;8.00;99.90;;;;;;5054521;28;20225;-82
2023/01/31 10:06:23;;;;;;;15.82;3.97;;;7.80;99.90;;;;;;5052865;28;20206;-81
2023/01/31 10:09:09;;;;;;;21.25;3.75;;;7.80;99.90;;;;;;5052603;28;20167;-83
2023/01/31 10:11:35;;;;;;;14.90;4.60;;;7.80;99.90;;;;;;5050542;28;20294;-83
2023/01/31 10:14:12;;;;;;;16.25;4.88;;;7.90;99.90;;;;;;5092360;28;20178;-81
2023/01/31 10:16:45;;;;;;;21.15;3.90;;;8.00;99.90;;;;;;5064795;28;20643;-81
2023/01/31 10:19:37;;;;;;;14.43;4.78;;;7.90;99.90;;;;;;5052034;28;20195;-82
2023/01/31 10:22:11;;;;;;;17.58;3.92;;;8.00;99.90;;;;;;5058987;28;20239;-82
2023/01/31 10:24:51;;;;;;;13.63;3.33;;;7.80;99.90;;;;;;5074348;28;20162;-79
2023/01/31 10:27:42;;;;;;;19.70;3.63;;;7.80;99.90;;;;;;5092747;28;20237;-79
2023/01/31 10:30:19;;;;;;;18.75;4.63;;;7.90;99.90;;;;;;5092803;28;20189;-79
2023/01/31 10:32:50;;;;;;;9.60;4.03;;;7.90;99.90;;;;;;5091881;28;20204;-80
2023/01/31 10:35:34;;;;;;;11.00;3.88;;;8.10;99.90;;;;;;5092210;28;20165;-81
2023/01/31 10:38:12;;;;;;;24.58;4.75;;;8.10;99.90;;;;;;5070049;28;20231;-82
2023/01/31 10:40:40;;;;;;;23.50;5.13;;;8.20;99.90;;;;;;5052831;28;20545;-78
2023/01/31 10:43:20;;;;;;;28.95;4.05;;;8.30;99.90;;;;;;5083353;28;20166;-80
2023/01/31 10:45:46;;;;;;;23.27;6.30;;;8.40;99.90;;;;;;5076097;28;20174;-81
2023/01/31 10:48:24;;;;;;;9.40;4.13;;;8.50;99.90;;;;;;5054711;28;20166;-78
2023/01/31 10:51:08;;;;;;;20.80;3.85;;;8.60;99.90;;;;;;5072290;28;20198;-82
2023/01/31 10:53:49;;;;;;;20.98;4.90;;;8.70;99.90;;;;;;5054233;28;20216;-79
2023/01/31 10:56:41;;;;;;;10.50;3.95;;;8.70;99.90;;;;;;5072867;28;20197;-79
2023/01/31 10:59:14;;;;;;;18.65;4.57;;;8.80;99.90;;;;;;5071159;28;20186;-79
2023/01/31 11:01:41;;;;;;;19.23;4.75;;;8.80;99.90;;;;;;5072213;28;20670;-78
2023/01/31 11:04:41;;;;;;;19.67;4.43;;;8.80;99.90;;;;;;5072414;28;20167;-80
2023/01/31 11:07:08;;;;;;;20.83;5.47;;;8.80;99.90;;;;;;5039109;28;20250;-80
2023/01/31 11:09:39;;;;;;;12.77;3.40;;;8.90;99.90;;;;;;5072359;28;20170;-78
2023/01/31 11:12:07;;;;;;;20.88;5.03;;;8.90;99.90;;;;;;5072208;28;20658;-79
2023/01/31 11:14:35;;;;;;;21.95;4.72;;;8.90;99.90;;;;;;5072750;28;20166;-80
2023/01/31 11:17:22;;;;;;;20.15;3.45;;;9.00;99.90;;;;;;5071843;28;20173;-82
2023/01/31 11:19:53;;;;;;;23.58;4.05;;;9.00;99.90;;;;;;5054174;28;20299;-79
2023/01/31 11:22:38;;;;;;;12.00;4.72;;;9.00;99.90;;;;;;5072418;28;20241;-79
2023/01/31 11:25:05;;;;;;;18.88;5.20;;;9.10;99.90;;;;;;5071504;28;20183;-78
2023/01/31 11:27:40;;;;;;;25.52;4.15;;;9.10;99.90;;;;;;5071825;28;20213;-78
2023/01/31 11:30:19;;;;;;;13.27;4.32;;;9.10;99.90;;;;;;5072018;28;20676;-81
2023/01/31 11:32:46;;;;;;;31.00;5.68;;;9.00;99.90;;;;;;5072282;28;20166;-78
2023/01/31 11:35:11;;;;;;;11.73;4.57;;;9.00;99.90;;;;;;5071979;28;20630;-79
2023/01/31 11:37:52;;;;;;;14.50;3.10;;;9.20;99.90;;;;;;5053782;28;20185;-80
2023/01/31 11:40:36;;;;;;;21.55;3.78;;;9.30;99.90;;;;;;5071816;28;20650;-79
2023/01/31 11:43:22;;;;;;;11.70;3.80;;;9.20;99.90;;;;;;5071648;28;20158;-80
2023/01/31 11:45:57;;;;;;;9.98;3.60;;;9.30;99.90;;;;;;5071958;28;20170;-80
2023/01/31 11:48:28;;;;;;;13.55;4.47;;;9.30;99.90;;;;;;5071932;28;20185;-79
2023/01/31 11:50:56;;;;;;;15.98;5.88;;;9.30;99.90;;;;;;5072568;28;20187;-78
2023/01/31 11:53:26;;;;;;;17.20;4.78;;;9.30;99.90;;;;;;5075785;28;20631;-79
2023/01/31 11:55:55;;;;;;;13.65;4.85;;;9.40;99.90;;;;;;5077427;28;20203;-79
2023/01/31 11:58:25;;;;;;;14.30;4.10;;;9.50;99.90;;;;;;5057954;28;20505;-79
2023/01/31 12:00:53;;;;;;;12.48;4.05;;;9.50;99.90;;;;;;5075433;28;20274;-79
2023/01/31 12:03:19;;;;;;;22.75;4.82;;;9.60;99.90;;;;;;5075536;28;20189;-79
2023/01/31 12:05:49;;;;;;;15.50;3.83;;;9.60;99.90;;;;;;5075294;28;20163;-79
2023/01/31 12:08:35;;;;;;;20.58;5.40;;;9.70;99.90;;;;;;5075208;28;20190;-81
2023/01/31 12:11:18;;;;;;;13.85;4.43;;;9.80;99.90;;;;;;5074974;28;20178;-80
2023/01/31 12:13:49;;;;;;;14.73;5.03;;;9.70;99.90;;;;;;5074867;28;20245;-81
2023/01/31 12:16:20;;;;;;;21.75;4.20;;;9.50;99.90;;;;;;5075401;28;20166;-78
2023/01/31 12:18:58;;;;;;;15.50;3.83;;;9.50;99.90;;;;;;5075016;28;20174;-78
2023/01/31 12:21:26;;;;;;;11.05;4.45;;;9.50;99.90;;;;;;5075073;28;20220;-79
2023/01/31 12:24:11;;;;;;;26.90;4.82;;;9.30;99.90;;;;;;5056726;28;20175;-79
2023/01/31 12:26:39;;;;;;;19.33;4.65;;;9.30;99.90;;;;;;5075363;28;20235;-78
2023/01/31 12:29:19;;;;;;;30.10;4.80;;;9.20;99.90;;;;;;5057325;28;20178;-80
2023/01/31 12:32:23;;;;;;;16.80;4.88;;;9.20;99.90;;;;;;5075119;28;20190;-81
2023/01/31 12:35:07;;;;;;;16.15;4.90;;;9.20;99.90;;;;;;5075201;28;20254;-81
2023/01/31 12:37:41;;;;;;;20.85;4.57;;;9.30;99.90;;;;;;5074898;28;20189;-78
2023/01/31 12:40:34;;;;;;;20.23;5.28;;;9.30;99.90;;;;;;5074800;28;20194;-79
2023/01/31 12:43:03;;;;;;;25.13;5.25;;;9.30;99.90;;;;;;5075226;28;20695;-79
2023/01/31 12:45:53;;;;;;;20.60;5.40;;;9.30;99.90;;;;;;5074920;28;20185;-80
2023/01/31 12:48:28;;;;;;;16.88;4.90;;;9.40;99.90;;;;;;5074669;28;20194;-78
2023/01/31 12:51:16;;;;;;;23.73;5.35;;;9.40;99.90;;;;;;5074567;28;20197;-78
2023/01/31 12:54:09;;;;;;;10.75;4.50;;;9.40;99.90;;;;;;5074777;28;20233;-80
2023/01/31 12:57:16;;;;;;;21.00;5.45;;;9.30;99.90;;;;;;5075970;28;20166;-79
2023/01/31 12:59:49;;;;;;;36.33;5.15;;;9.40;99.90;;;;;;5064962;28;20189;-79
2023/01/31 13:02:21;;;;;;;21.25;5.57;;;9.50;99.90;;;;;;5075893;28;20186;-78
2023/01/31 13:05:11;;;;;;;17.42;4.90;;;9.50;99.90;;;;;;5075938;28;20173;-78
2023/01/31 13:07:52;;;;;;;23.25;4.72;;;9.40;99.90;;;;;;5075755;28;20237;-81
2023/01/31 13:10:39;;;;;;;24.38;5.22;;;9.40;99.90;;;;;;5076555;28;20276;-80
2023/01/31 13:13:42;;;;;;;24.17;5.70;;;9.40;99.90;;;;;;5069534;28;20175;-78
2023/01/31 13:16:45;;;;;;;31.92;6.18;;;9.20;99.90;;;;;;4976190;28;20185;-80